sensor_id;sensor_type;location;lat;lon;timestamp;pressure;altitude;pressure_sealevel;temperature
44429;BMP180;30134;47.866;-4.222;2023-07-13T00:00:26;101578.00;;;24.30
44429;BMP180;30134;47.866;-4.222;2023-07-13T00:02:52;101572.00;;;24.40
44429;BMP180;30134;47.866;-4.222;2023-07-13T00:05:24;101566.00;;;24.30
44429;BMP180;30134;47.866;-4.222;2023-07-13T00:07:51;101564.00;;;24.40
44429;BMP180;30134;47.866;-4.222;2023-07-13T00:10:17;101561.00;;;24.40
44429;BMP180;30134;47.866;-4.222;2023-07-13T00:12:44;101564.00;;;24.50
44429;BMP180;30134;47.866;-4.222;2023-07-13T00:15:16;101567.00;;;24.40
44429;BMP180;30134;47.866;-4.222;2023-07-13T00:17:42;101565.00;;;24.50
44429;BMP180;30134;47.866;-4.222;2023-07-13T00:20:11;101565.00;;;24.40
44429;BMP180;30134;47.866;-4.222;2023-07-13T00:22:38;101570.00;;;24.40
44429;BMP180;30134;47.866;-4.222;2023-07-13T00:25:05;101566.00;;;24.50
44429;BMP180;30134;47.866;-4.222;2023-07-13T00:27:31;101567.00;;;24.60
44429;BMP180;30134;47.866;-4.222;2023-07-13T00:29:58;101565.00;;;24.50
44429;BMP180;30134;47.866;-4.222;2023-07-13T00:32:24;101566.00;;;24.50
44429;BMP180;30134;47.866;-4.222;2023-07-13T00:34:52;101568.00;;;24.60
44429;BMP180;30134;47.866;-4.222;2023-07-13T00:37:18;101566.00;;;24.50
44429;BMP180;30134;47.866;-4.222;2023-07-13T00:39:45;101572.00;;;24.60
44429;BMP180;30134;47.866;-4.222;2023-07-13T00:42:11;101561.00;;;24.70
44429;BMP180;30134;47.866;-4.222;2023-07-13T00:47:57;101567.00;;;24.60
44429;BMP180;30134;47.866;-4.222;2023-07-13T00:50:23;101561.00;;;24.90
44429;BMP180;30134;47.866;-4.222;2023-07-13T00:52:54;101560.00;;;25.00
44429;BMP180;30134;47.866;-4.222;2023-07-13T00:55:21;101557.00;;;24.70
44429;BMP180;30134;47.866;-4.222;2023-07-13T00:57:48;101562.00;;;24.80
44429;BMP180;30134;47.866;-4.222;2023-07-13T01:00:15;101558.00;;;24.90
44429;BMP180;30134;47.866;-4.222;2023-07-13T01:02:47;101554.00;;;24.80
44429;BMP180;30134;47.866;-4.222;2023-07-13T01:05:17;101550.00;;;24.70
44429;BMP180;30134;47.866;-4.222;2023-07-13T01:07:44;101553.00;;;24.80
44429;BMP180;30134;47.866;-4.222;2023-07-13T01:10:12;101547.00;;;24.70
44429;BMP180;30134;47.866;-4.222;2023-07-13T01:12:39;101551.00;;;24.70
44429;BMP180;30134;47.866;-4.222;2023-07-13T01:17:58;101543.00;;;24.70
44429;BMP180;30134;47.866;-4.222;2023-07-13T01:20:24;101544.00;;;24.80
44429;BMP180;30134;47.866;-4.222;2023-07-13T01:22:51;101546.00;;;24.70
44429;BMP180;30134;47.866;-4.222;2023-07-13T01:25:18;101541.00;;;24.80
44429;BMP180;30134;47.866;-4.222;2023-07-13T01:27:44;101544.00;;;24.80
44429;BMP180;30134;47.866;-4.222;2023-07-13T01:30:10;101551.00;;;24.80
44429;BMP180;30134;47.866;-4.222;2023-07-13T01:32:36;101543.00;;;24.80
44429;BMP180;30134;47.866;-4.222;2023-07-13T01:35:03;101535.00;;;24.90
44429;BMP180;30134;47.866;-4.222;2023-07-13T01:37:29;101538.00;;;24.90
44429;BMP180;30134;47.866;-4.222;2023-07-13T01:39:59;101536.00;;;24.80
44429;BMP180;30134;47.866;-4.222;2023-07-13T01:42:26;101540.00;;;24.80
44429;BMP180;30134;47.866;-4.222;2023-07-13T01:44:51;101541.00;;;24.90
44429;BMP180;30134;47.866;-4.222;2023-07-13T01:47:17;101540.00;;;24.70
44429;BMP180;30134;47.866;-4.222;2023-07-13T01:49:44;101537.00;;;24.70
44429;BMP180;30134;47.866;-4.222;2023-07-13T01:52:11;101539.00;;;24.70
44429;BMP180;30134;47.866;-4.222;2023-07-13T01:54:37;101533.00;;;24.70
44429;BMP180;30134;47.866;-4.222;2023-07-13T01:57:03;101531.00;;;24.70
44429;BMP180;30134;47.866;-4.222;2023-07-13T01:59:30;101538.00;;;24.80
44429;BMP180;30134;47.866;-4.222;2023-07-13T02:01:56;101534.00;;;24.90
44429;BMP180;30134;47.866;-4.222;2023-07-13T02:04:22;101538.00;;;24.80
44429;BMP180;30134;47.866;-4.222;2023-07-13T02:06:48;101529.00;;;24.80
44429;BMP180;30134;47.866;-4.222;2023-07-13T02:09:14;101533.00;;;24.80
44429;BMP180;30134;47.866;-4.222;2023-07-13T02:11:40;101537.00;;;24.80
44429;BMP180;30134;47.866;-4.222;2023-07-13T02:14:06;101538.00;;;24.90
44429;BMP180;30134;47.866;-4.222;2023-07-13T02:16:32;101525.00;;;24.70
44429;BMP180;30134;47.866;-4.222;2023-07-13T02:18:58;101530.00;;;24.80
44429;BMP180;30134;47.866;-4.222;2023-07-13T02:21:26;101534.00;;;24.80
44429;BMP180;30134;47.866;-4.222;2023-07-13T02:23:52;101537.00;;;24.70
44429;BMP180;30134;47.866;-4.222;2023-07-13T02:26:25;101528.00;;;24.80
44429;BMP180;30134;47.866;-4.222;2023-07-13T02:28:51;101535.00;;;24.80
44429;BMP180;30134;47.866;-4.222;2023-07-13T02:31:18;101526.00;;;24.80
44429;BMP180;30134;47.866;-4.222;2023-07-13T02:33:44;101524.00;;;24.70
44429;BMP180;30134;47.866;-4.222;2023-07-13T02:36:11;101526.00;;;24.70
44429;BMP180;30134;47.866;-4.222;2023-07-13T02:38:37;101535.00;;;24.80
44429;BMP180;30134;47.866;-4.222;2023-07-13T02:41:05;101526.00;;;24.70
44429;BMP180;30134;47.866;-4.222;2023-07-13T02:43:31;101527.00;;;24.80
44429;BMP180;30134;47.866;-4.222;2023-07-13T02:45:59;101521.00;;;24.80
44429;BMP180;30134;47.866;-4.222;2023-07-13T02:48:36;101535.00;;;24.80
44429;BMP180;30134;47.866;-4.222;2023-07-13T02:51:03;101526.00;;;24.70
44429;BMP180;30134;47.866;-4.222;2023-07-13T02:53:29;101514.00;;;24.90
44429;BMP180;30134;47.866;-4.222;2023-07-13T02:55:55;101515.00;;;24.80
44429;BMP180;30134;47.866;-4.222;2023-07-13T02:58:22;101513.00;;;24.90
44429;BMP180;30134;47.866;-4.222;2023-07-13T03:00:48;101518.00;;;24.90
44429;BMP180;30134;47.866;-4.222;2023-07-13T03:03:16;101526.00;;;24.80
44429;BMP180;30134;47.866;-4.222;2023-07-13T03:05:44;101525.00;;;24.80
44429;BMP180;30134;47.866;-4.222;2023-07-13T03:08:15;101522.00;;;24.80
44429;BMP180;30134;47.866;-4.222;2023-07-13T03:10:41;101519.00;;;24.70
44429;BMP180;30134;47.866;-4.222;2023-07-13T03:13:07;101519.00;;;24.80
44429;BMP180;30134;47.866;-4.222;2023-07-13T03:15:33;101524.00;;;24.80
44429;BMP180;30134;47.866;-4.222;2023-07-13T03:17:59;101516.00;;;24.80
44429;BMP180;30134;47.866;-4.222;2023-07-13T03:20:25;101520.00;;;24.80
44429;BMP180;30134;47.866;-4.222;2023-07-13T03:22:51;101527.00;;;24.80
44429;BMP180;30134;47.866;-4.222;2023-07-13T03:25:17;101525.00;;;24.90
44429;BMP180;30134;47.866;-4.222;2023-07-13T03:27:43;101516.00;;;24.80
44429;BMP180;30134;47.866;-4.222;2023-07-13T03:30:10;101525.00;;;24.80
44429;BMP180;30134;47.866;-4.222;2023-07-13T03:32:36;101528.00;;;24.90
44429;BMP180;30134;47.866;-4.222;2023-07-13T03:35:02;101528.00;;;24.70
44429;BMP180;30134;47.866;-4.222;2023-07-13T03:37:28;101529.00;;;24.80
44429;BMP180;30134;47.866;-4.222;2023-07-13T03:39:54;101533.00;;;24.70
44429;BMP180;30134;47.866;-4.222;2023-07-13T03:42:20;101543.00;;;24.80
44429;BMP180;30134;47.866;-4.222;2023-07-13T03:44:46;101539.00;;;24.80
44429;BMP180;30134;47.866;-4.222;2023-07-13T03:47:18;101538.00;;;24.90
44429;BMP180;30134;47.866;-4.222;2023-07-13T03:49:44;101535.00;;;24.70
44429;BMP180;30134;47.866;-4.222;2023-07-13T03:52:11;101544.00;;;24.80
44429;BMP180;30134;47.866;-4.222;2023-07-13T03:54:39;101545.00;;;24.80
44429;BMP180;30134;47.866;-4.222;2023-07-13T03:57:05;101554.00;;;24.80
44429;BMP180;30134;47.866;-4.222;2023-07-13T03:59:32;101548.00;;;24.60
44429;BMP180;30134;47.866;-4.222;2023-07-13T04:01:57;101548.00;;;24.70
44429;BMP180;30134;47.866;-4.222;2023-07-13T04:04:23;101553.00;;;24.80
44429;BMP180;30134;47.866;-4.222;2023-07-13T04:06:49;101548.00;;;24.70
44429;BMP180;30134;47.866;-4.222;2023-07-13T04:09:18;101555.00;;;24.80
44429;BMP180;30134;47.866;-4.222;2023-07-13T04:11:44;101554.00;;;24.80
44429;BMP180;30134;47.866;-4.222;2023-07-13T04:14:10;101558.00;;;24.80
44429;BMP180;30134;47.866;-4.222;2023-07-13T04:16:36;101565.00;;;24.80
44429;BMP180;30134;47.866;-4.222;2023-07-13T04:19:02;101563.00;;;24.90
44429;BMP180;30134;47.866;-4.222;2023-07-13T04:21:30;101564.00;;;24.70
44429;BMP180;30134;47.866;-4.222;2023-07-13T04:23:57;101571.00;;;24.80
44429;BMP180;30134;47.866;-4.222;2023-07-13T04:26:23;101570.00;;;24.60
44429;BMP180;30134;47.866;-4.222;2023-07-13T04:28:50;101574.00;;;24.80
44429;BMP180;30134;47.866;-4.222;2023-07-13T04:31:17;101573.00;;;24.80
44429;BMP180;30134;47.866;-4.222;2023-07-13T04:33:43;101574.00;;;24.90
44429;BMP180;30134;47.866;-4.222;2023-07-13T04:36:10;101574.00;;;24.80
44429;BMP180;30134;47.866;-4.222;2023-07-13T04:38:36;101580.00;;;24.80
44429;BMP180;30134;47.866;-4.222;2023-07-13T04:41:06;101577.00;;;24.90
44429;BMP180;30134;47.866;-4.222;2023-07-13T04:43:33;101577.00;;;24.90
44429;BMP180;30134;47.866;-4.222;2023-07-13T04:46:09;101582.00;;;24.80
44429;BMP180;30134;47.866;-4.222;2023-07-13T04:48:37;101577.00;;;24.80
44429;BMP180;30134;47.866;-4.222;2023-07-13T04:51:05;101587.00;;;24.80
44429;BMP180;30134;47.866;-4.222;2023-07-13T04:53:33;101585.00;;;24.80
44429;BMP180;30134;47.866;-4.222;2023-07-13T04:56:00;101586.00;;;24.80
44429;BMP180;30134;47.866;-4.222;2023-07-13T04:58:27;101584.00;;;24.80
44429;BMP180;30134;47.866;-4.222;2023-07-13T05:01:00;101591.00;;;24.80
44429;BMP180;30134;47.866;-4.222;2023-07-13T05:03:26;101587.00;;;24.90
44429;BMP180;30134;47.866;-4.222;2023-07-13T05:06:02;101591.00;;;24.80
44429;BMP180;30134;47.866;-4.222;2023-07-13T05:08:28;101599.00;;;24.80
44429;BMP180;30134;47.866;-4.222;2023-07-13T05:10:54;101597.00;;;24.80
44429;BMP180;30134;47.866;-4.222;2023-07-13T05:13:21;101593.00;;;24.90
44429;BMP180;30134;47.866;-4.222;2023-07-13T05:15:58;101595.00;;;24.80
44429;BMP180;30134;47.866;-4.222;2023-07-13T05:18:24;101598.00;;;24.90
44429;BMP180;30134;47.866;-4.222;2023-07-13T05:21:03;101600.00;;;24.80
44429;BMP180;30134;47.866;-4.222;2023-07-13T05:23:31;101604.00;;;24.90
44429;BMP180;30134;47.866;-4.222;2023-07-13T05:25:58;101606.00;;;24.80
44429;BMP180;30134;47.866;-4.222;2023-07-13T05:28:25;101609.00;;;24.80
44429;BMP180;30134;47.866;-4.222;2023-07-13T05:30:51;101612.00;;;24.80
44429;BMP180;30134;47.866;-4.222;2023-07-13T05:33:18;101605.00;;;24.80
44429;BMP180;30134;47.866;-4.222;2023-07-13T05:35:44;101616.00;;;24.80
44429;BMP180;30134;47.866;-4.222;2023-07-13T05:38:10;101612.00;;;25.00
44429;BMP180;30134;47.866;-4.222;2023-07-13T05:40:35;101609.00;;;24.80
44429;BMP180;30134;47.866;-4.222;2023-07-13T05:43:01;101614.00;;;24.80
44429;BMP180;30134;47.866;-4.222;2023-07-13T05:45:27;101621.00;;;24.80
44429;BMP180;30134;47.866;-4.222;2023-07-13T05:47:53;101623.00;;;24.80
44429;BMP180;30134;47.866;-4.222;2023-07-13T05:50:19;101619.00;;;24.80
44429;BMP180;30134;47.866;-4.222;2023-07-13T05:52:45;101623.00;;;24.80
44429;BMP180;30134;47.866;-4.222;2023-07-13T05:55:11;101627.00;;;24.80
44429;BMP180;30134;47.866;-4.222;2023-07-13T05:57:37;101624.00;;;24.80
44429;BMP180;30134;47.866;-4.222;2023-07-13T06:00:03;101638.00;;;24.80
44429;BMP180;30134;47.866;-4.222;2023-07-13T06:02:30;101633.00;;;24.90
44429;BMP180;30134;47.866;-4.222;2023-07-13T06:04:56;101627.00;;;24.90
44429;BMP180;30134;47.866;-4.222;2023-07-13T06:07:28;101644.00;;;24.90
44429;BMP180;30134;47.866;-4.222;2023-07-13T06:09:54;101646.00;;;25.00
44429;BMP180;30134;47.866;-4.222;2023-07-13T06:12:20;101654.00;;;24.90
44429;BMP180;30134;47.866;-4.222;2023-07-13T06:14:46;101652.00;;;24.90
44429;BMP180;30134;47.866;-4.222;2023-07-13T06:17:11;101647.00;;;24.70
44429;BMP180;30134;47.866;-4.222;2023-07-13T06:19:38;101655.00;;;24.90
44429;BMP180;30134;47.866;-4.222;2023-07-13T06:22:04;101662.00;;;24.90
44429;BMP180;30134;47.866;-4.222;2023-07-13T06:24:30;101661.00;;;24.80
44429;BMP180;30134;47.866;-4.222;2023-07-13T06:26:59;101653.00;;;24.90
44429;BMP180;30134;47.866;-4.222;2023-07-13T06:29:25;101661.00;;;24.80
44429;BMP180;30134;47.866;-4.222;2023-07-13T06:31:51;101661.00;;;24.80
44429;BMP180;30134;47.866;-4.222;2023-07-13T06:34:17;101666.00;;;24.90
44429;BMP180;30134;47.866;-4.222;2023-07-13T06:36:44;101664.00;;;24.80
44429;BMP180;30134;47.866;-4.222;2023-07-13T06:39:10;101667.00;;;24.80
44429;BMP180;30134;47.866;-4.222;2023-07-13T06:41:36;101660.00;;;24.80
44429;BMP180;30134;47.866;-4.222;2023-07-13T06:44:04;101661.00;;;24.80
44429;BMP180;30134;47.866;-4.222;2023-07-13T06:46:30;101667.00;;;24.80
44429;BMP180;30134;47.866;-4.222;2023-07-13T06:48:56;101654.00;;;24.80
44429;BMP180;30134;47.866;-4.222;2023-07-13T06:51:22;101657.00;;;25.00
44429;BMP180;30134;47.866;-4.222;2023-07-13T06:53:48;101653.00;;;24.90
44429;BMP180;30134;47.866;-4.222;2023-07-13T06:56:15;101659.00;;;24.80
44429;BMP180;30134;47.866;-4.222;2023-07-13T06:58:41;101652.00;;;24.80
44429;BMP180;30134;47.866;-4.222;2023-07-13T07:01:08;101647.00;;;24.90
44429;BMP180;30134;47.866;-4.222;2023-07-13T07:03:34;101658.00;;;24.90
44429;BMP180;30134;47.866;-4.222;2023-07-13T07:06:18;101666.00;;;24.80
44429;BMP180;30134;47.866;-4.222;2023-07-13T07:08:44;101669.00;;;24.90
44429;BMP180;30134;47.866;-4.222;2023-07-13T07:11:19;101670.00;;;24.90
44429;BMP180;30134;47.866;-4.222;2023-07-13T07:13:45;101668.00;;;24.90
44429;BMP180;30134;47.866;-4.222;2023-07-13T07:16:11;101663.00;;;24.90
44429;BMP180;30134;47.866;-4.222;2023-07-13T07:18:37;101676.00;;;24.90
44429;BMP180;30134;47.866;-4.222;2023-07-13T07:21:03;101679.00;;;24.90
44429;BMP180;30134;47.866;-4.222;2023-07-13T07:23:30;101678.00;;;24.80
44429;BMP180;30134;47.866;-4.222;2023-07-13T07:25:56;101673.00;;;24.90
44429;BMP180;30134;47.866;-4.222;2023-07-13T07:28:22;101674.00;;;24.80
44429;BMP180;30134;47.866;-4.222;2023-07-13T07:30:51;101688.00;;;25.00
44429;BMP180;30134;47.866;-4.222;2023-07-13T07:33:18;101684.00;;;24.90
44429;BMP180;30134;47.866;-4.222;2023-07-13T07:35:44;101690.00;;;25.00
44429;BMP180;30134;47.866;-4.222;2023-07-13T07:38:10;101694.00;;;24.90
44429;BMP180;30134;47.866;-4.222;2023-07-13T07:40:40;101696.00;;;24.90
44429;BMP180;30134;47.866;-4.222;2023-07-13T07:43:11;101697.00;;;24.80
44429;BMP180;30134;47.866;-4.222;2023-07-13T07:45:38;101695.00;;;24.90
44429;BMP180;30134;47.866;-4.222;2023-07-13T07:48:06;101698.00;;;24.90
44429;BMP180;30134;47.866;-4.222;2023-07-13T07:50:32;101696.00;;;24.90
44429;BMP180;30134;47.866;-4.222;2023-07-13T07:52:58;101703.00;;;24.90
44429;BMP180;30134;47.866;-4.222;2023-07-13T07:55:25;101699.00;;;24.90
44429;BMP180;30134;47.866;-4.222;2023-07-13T07:57:56;101700.00;;;24.80
44429;BMP180;30134;47.866;-4.222;2023-07-13T08:00:22;101703.00;;;24.80
44429;BMP180;30134;47.866;-4.222;2023-07-13T08:02:48;101697.00;;;25.00
44429;BMP180;30134;47.866;-4.222;2023-07-13T08:05:15;101706.00;;;25.10
44429;BMP180;30134;47.866;-4.222;2023-07-13T08:07:41;101708.00;;;25.00
44429;BMP180;30134;47.866;-4.222;2023-07-13T08:10:08;101715.00;;;24.90
44429;BMP180;30134;47.866;-4.222;2023-07-13T08:12:39;101706.00;;;25.00
44429;BMP180;30134;47.866;-4.222;2023-07-13T08:15:11;101711.00;;;25.00
44429;BMP180;30134;47.866;-4.222;2023-07-13T08:17:37;101716.00;;;25.00
44429;BMP180;30134;47.866;-4.222;2023-07-13T08:20:05;101709.00;;;24.90
44429;BMP180;30134;47.866;-4.222;2023-07-13T08:22:32;101705.00;;;24.80
44429;BMP180;30134;47.866;-4.222;2023-07-13T08:25:00;101713.00;;;24.90
44429;BMP180;30134;47.866;-4.222;2023-07-13T08:27:28;101715.00;;;24.90
44429;BMP180;30134;47.866;-4.222;2023-07-13T08:29:57;101713.00;;;25.00
44429;BMP180;30134;47.866;-4.222;2023-07-13T08:32:24;101718.00;;;24.90
44429;BMP180;30134;47.866;-4.222;2023-07-13T08:34:51;101724.00;;;24.90
44429;BMP180;30134;47.866;-4.222;2023-07-13T08:37:18;101723.00;;;24.90
44429;BMP180;30134;47.866;-4.222;2023-07-13T08:39:44;101714.00;;;25.00
44429;BMP180;30134;47.866;-4.222;2023-07-13T08:42:50;101719.00;;;25.00
44429;BMP180;30134;47.866;-4.222;2023-07-13T08:48:11;101706.00;;;25.00
44429;BMP180;30134;47.866;-4.222;2023-07-13T08:53:51;101705.00;;;25.00
44429;BMP180;30134;47.866;-4.222;2023-07-13T08:56:22;101716.00;;;25.00
44429;BMP180;30134;47.866;-4.222;2023-07-13T08:58:56;101719.00;;;25.00
44429;BMP180;30134;47.866;-4.222;2023-07-13T09:01:42;101717.00;;;25.00
44429;BMP180;30134;47.866;-4.222;2023-07-13T09:04:21;101711.00;;;25.00
44429;BMP180;30134;47.866;-4.222;2023-07-13T09:09:58;101718.00;;;24.90
44429;BMP180;30134;47.866;-4.222;2023-07-13T09:13:30;101717.00;;;24.90
44429;BMP180;30134;47.866;-4.222;2023-07-13T09:15:40;101720.00;;;25.00
44429;BMP180;30134;47.866;-4.222;2023-07-13T09:18:30;101725.00;;;25.00
44429;BMP180;30134;47.866;-4.222;2023-07-13T09:21:20;101720.00;;;25.00
44429;BMP180;30134;47.866;-4.222;2023-07-13T09:23:48;101720.00;;;25.00
44429;BMP180;30134;47.866;-4.222;2023-07-13T09:26:20;101725.00;;;25.00
44429;BMP180;30134;47.866;-4.222;2023-07-13T09:29:03;101731.00;;;25.10
44429;BMP180;30134;47.866;-4.222;2023-07-13T09:31:38;101733.00;;;25.00
44429;BMP180;30134;47.866;-4.222;2023-07-13T09:34:10;101731.00;;;24.80
44429;BMP180;30134;47.866;-4.222;2023-07-13T09:36:37;101733.00;;;24.80
44429;BMP180;30134;47.866;-4.222;2023-07-13T09:39:20;101732.00;;;24.80
44429;BMP180;30134;47.866;-4.222;2023-07-13T09:44:59;101727.00;;;24.50
44429;BMP180;30134;47.866;-4.222;2023-07-13T09:47:28;101729.00;;;24.50
44429;BMP180;30134;47.866;-4.222;2023-07-13T09:50:08;101735.00;;;24.50
44429;BMP180;30134;47.866;-4.222;2023-07-13T09:52:46;101731.00;;;24.30
44429;BMP180;30134;47.866;-4.222;2023-07-13T09:55:39;101732.00;;;24.10
44429;BMP180;30134;47.866;-4.222;2023-07-13T09:58:19;101724.00;;;24.10
44429;BMP180;30134;47.866;-4.222;2023-07-13T10:01:00;101720.00;;;24.10
44429;BMP180;30134;47.866;-4.222;2023-07-13T10:03:33;101723.00;;;24.10
44429;BMP180;30134;47.866;-4.222;2023-07-13T10:06:18;101729.00;;;24.20
44429;BMP180;30134;47.866;-4.222;2023-07-13T10:08:46;101735.00;;;23.90
44429;BMP180;30134;47.866;-4.222;2023-07-13T10:11:28;101740.00;;;24.10
44429;BMP180;30134;47.866;-4.222;2023-07-13T10:14:01;101734.00;;;24.10
44429;BMP180;30134;47.866;-4.222;2023-07-13T10:16:35;101739.00;;;24.10
44429;BMP180;30134;47.866;-4.222;2023-07-13T10:19:21;101741.00;;;24.10
44429;BMP180;30134;47.866;-4.222;2023-07-13T10:22:00;101738.00;;;24.00
44429;BMP180;30134;47.866;-4.222;2023-07-13T10:24:33;101749.00;;;24.00
44429;BMP180;30134;47.866;-4.222;2023-07-13T10:27:16;101746.00;;;23.80
44429;BMP180;30134;47.866;-4.222;2023-07-13T10:32:34;101753.00;;;23.90
44429;BMP180;30134;47.866;-4.222;2023-07-13T10:35:00;101745.00;;;23.90
44429;BMP180;30134;47.866;-4.222;2023-07-13T10:38:26;101756.00;;;23.80
44429;BMP180;30134;47.866;-4.222;2023-07-13T10:41:03;101758.00;;;23.80
44429;BMP180;30134;47.866;-4.222;2023-07-13T10:43:50;101762.00;;;23.70
44429;BMP180;30134;47.866;-4.222;2023-07-13T10:46:22;101762.00;;;23.70
44429;BMP180;30134;47.866;-4.222;2023-07-13T10:49:01;101759.00;;;23.80
44429;BMP180;30134;47.866;-4.222;2023-07-13T10:51:30;101751.00;;;23.80
44429;BMP180;30134;47.866;-4.222;2023-07-13T10:54:17;101751.00;;;23.80
44429;BMP180;30134;47.866;-4.222;2023-07-13T10:56:45;101753.00;;;23.70
44429;BMP180;30134;47.866;-4.222;2023-07-13T10:59:25;101758.00;;;23.80
44429;BMP180;30134;47.866;-4.222;2023-07-13T11:04:25;101749.00;;;23.70
44429;BMP180;30134;47.866;-4.222;2023-07-13T11:06:58;101754.00;;;23.70
44429;BMP180;30134;47.866;-4.222;2023-07-13T11:09:37;101753.00;;;23.60
44429;BMP180;30134;47.866;-4.222;2023-07-13T11:17:51;101746.00;;;23.90
44429;BMP180;30134;47.866;-4.222;2023-07-13T11:25:42;101749.00;;;23.70
44429;BMP180;30134;47.866;-4.222;2023-07-13T11:36:17;101737.00;;;23.60
44429;BMP180;30134;47.866;-4.222;2023-07-13T11:39:16;101730.00;;;23.60
44429;BMP180;30134;47.866;-4.222;2023-07-13T11:41:53;101739.00;;;23.70
44429;BMP180;30134;47.866;-4.222;2023-07-13T11:44:24;101737.00;;;23.50
44429;BMP180;30134;47.866;-4.222;2023-07-13T11:46:54;101735.00;;;23.50
44429;BMP180;30134;47.866;-4.222;2023-07-13T11:49:23;101738.00;;;23.70
44429;BMP180;30134;47.866;-4.222;2023-07-13T11:51:51;101740.00;;;23.60
44429;BMP180;30134;47.866;-4.222;2023-07-13T11:54:34;101731.00;;;23.60
44429;BMP180;30134;47.866;-4.222;2023-07-13T11:59:51;101723.00;;;23.70
44429;BMP180;30134;47.866;-4.222;2023-07-13T12:02:40;101730.00;;;23.80
44429;BMP180;30134;47.866;-4.222;2023-07-13T12:05:14;101733.00;;;23.70
44429;BMP180;30134;47.866;-4.222;2023-07-13T12:07:41;101731.00;;;23.70
44429;BMP180;30134;47.866;-4.222;2023-07-13T12:10:28;101730.00;;;23.80
44429;BMP180;30134;47.866;-4.222;2023-07-13T12:13:03;101730.00;;;23.90
44429;BMP180;30134;47.866;-4.222;2023-07-13T12:15:44;101729.00;;;23.90
44429;BMP180;30134;47.866;-4.222;2023-07-13T12:18:21;101728.00;;;23.90
44429;BMP180;30134;47.866;-4.222;2023-07-13T12:20:49;101726.00;;;24.00
44429;BMP180;30134;47.866;-4.222;2023-07-13T12:23:34;101726.00;;;24.00
44429;BMP180;30134;47.866;-4.222;2023-07-13T12:26:05;101718.00;;;24.00
44429;BMP180;30134;47.866;-4.222;2023-07-13T12:31:06;101713.00;;;24.00
44429;BMP180;30134;47.866;-4.222;2023-07-13T12:33:33;101725.00;;;24.00
44429;BMP180;30134;47.866;-4.222;2023-07-13T12:36:03;101723.00;;;24.00
44429;BMP180;30134;47.866;-4.222;2023-07-13T12:38:31;101718.00;;;23.90
44429;BMP180;30134;47.866;-4.222;2023-07-13T12:40:58;101729.00;;;24.00
44429;BMP180;30134;47.866;-4.222;2023-07-13T12:43:25;101718.00;;;24.00
44429;BMP180;30134;47.866;-4.222;2023-07-13T12:46:03;101715.00;;;24.10
44429;BMP180;30134;47.866;-4.222;2023-07-13T12:48:29;101720.00;;;24.00
44429;BMP180;30134;47.866;-4.222;2023-07-13T12:50:56;101709.00;;;24.00
44429;BMP180;30134;47.866;-4.222;2023-07-13T12:53:30;101711.00;;;24.10
44429;BMP180;30134;47.866;-4.222;2023-07-13T12:56:02;101705.00;;;24.10
44429;BMP180;30134;47.866;-4.222;2023-07-13T12:58:40;101711.00;;;24.20
44429;BMP180;30134;47.866;-4.222;2023-07-13T13:01:12;101712.00;;;24.10
44429;BMP180;30134;47.866;-4.222;2023-07-13T13:03:52;101718.00;;;24.00
44429;BMP180;30134;47.866;-4.222;2023-07-13T13:08:54;101710.00;;;24.00
44429;BMP180;30134;47.866;-4.222;2023-07-13T13:11:23;101705.00;;;24.10
44429;BMP180;30134;47.866;-4.222;2023-07-13T13:13:50;101702.00;;;24.20
44429;BMP180;30134;47.866;-4.222;2023-07-13T13:16:54;101712.00;;;24.20
44429;BMP180;30134;47.866;-4.222;2023-07-13T13:19:25;101707.00;;;24.10
44429;BMP180;30134;47.866;-4.222;2023-07-13T13:21:54;101707.00;;;24.30
44429;BMP180;30134;47.866;-4.222;2023-07-13T13:24:24;101702.00;;;24.20
44429;BMP180;30134;47.866;-4.222;2023-07-13T13:26:51;101707.00;;;24.30
44429;BMP180;30134;47.866;-4.222;2023-07-13T13:29:24;101706.00;;;24.30
44429;BMP180;30134;47.866;-4.222;2023-07-13T13:31:50;101711.00;;;24.30
44429;BMP180;30134;47.866;-4.222;2023-07-13T13:34:17;101708.00;;;24.30
44429;BMP180;30134;47.866;-4.222;2023-07-13T13:36:46;101716.00;;;24.30
44429;BMP180;30134;47.866;-4.222;2023-07-13T13:41:44;101707.00;;;24.30
44429;BMP180;30134;47.866;-4.222;2023-07-13T13:44:17;101703.00;;;24.20
44429;BMP180;30134;47.866;-4.222;2023-07-13T13:46:46;101700.00;;;24.20
44429;BMP180;30134;47.866;-4.222;2023-07-13T13:49:23;101698.00;;;24.30
44429;BMP180;30134;47.866;-4.222;2023-07-13T13:51:51;101696.00;;;24.30
44429;BMP180;30134;47.866;-4.222;2023-07-13T13:54:20;101696.00;;;24.30
44429;BMP180;30134;47.866;-4.222;2023-07-13T13:56:49;101694.00;;;24.30
44429;BMP180;30134;47.866;-4.222;2023-07-13T13:59:17;101690.00;;;24.30
44429;BMP180;30134;47.866;-4.222;2023-07-13T14:01:45;101685.00;;;24.20
44429;BMP180;30134;47.866;-4.222;2023-07-13T14:04:21;101687.00;;;24.40
44429;BMP180;30134;47.866;-4.222;2023-07-13T14:06:48;101681.00;;;24.40
44429;BMP180;30134;47.866;-4.222;2023-07-13T14:09:17;101683.00;;;24.20
44429;BMP180;30134;47.866;-4.222;2023-07-13T14:11:45;101674.00;;;24.30
44429;BMP180;30134;47.866;-4.222;2023-07-13T14:14:22;101671.00;;;24.30
44429;BMP180;30134;47.866;-4.222;2023-07-13T14:16:50;101659.00;;;24.40
44429;BMP180;30134;47.866;-4.222;2023-07-13T14:19:21;101655.00;;;24.40
44429;BMP180;30134;47.866;-4.222;2023-07-13T14:21:47;101659.00;;;24.40
44429;BMP180;30134;47.866;-4.222;2023-07-13T14:24:19;101657.00;;;24.40
44429;BMP180;30134;47.866;-4.222;2023-07-13T14:26:46;101651.00;;;24.40
44429;BMP180;30134;47.866;-4.222;2023-07-13T14:29:19;101653.00;;;24.30
44429;BMP180;30134;47.866;-4.222;2023-07-13T14:31:45;101654.00;;;24.30
44429;BMP180;30134;47.866;-4.222;2023-07-13T14:34:11;101657.00;;;24.50
44429;BMP180;30134;47.866;-4.222;2023-07-13T14:36:56;101662.00;;;24.40
44429;BMP180;30134;47.866;-4.222;2023-07-13T14:39:25;101660.00;;;24.40
44429;BMP180;30134;47.866;-4.222;2023-07-13T14:41:54;101655.00;;;24.40
44429;BMP180;30134;47.866;-4.222;2023-07-13T14:44:29;101661.00;;;24.30
44429;BMP180;30134;47.866;-4.222;2023-07-13T14:46:58;101649.00;;;24.50
44429;BMP180;30134;47.866;-4.222;2023-07-13T14:52:05;101659.00;;;24.40
44429;BMP180;30134;47.866;-4.222;2023-07-13T14:54:36;101664.00;;;24.40